Time;durP1;ratioP1;P1;durP2;ratioP2;P2;SDS_P1;SDS_P2;PMS_P1;PMS_P2;Temp;Humidity;BMP_temperature;BMP_pressure;BME280_temperature;BME280_humidity;BME280_pressure;Samples;Min_cycle;Max_cycle;Signal;HPM_P1;HPM_P2
2023/04/22 00:02:15;;;;;;;4.25;3.72;;;11.90;80.10;;;;;;4994836;28;20652;-63
2023/04/22 00:04:41;;;;;;;5.50;3.63;;;11.90;80.10;;;;;;4996498;28;20057;-63
2023/04/22 00:07:07;;;;;;;4.32;3.92;;;11.90;80.20;;;;;;4998756;28;20129;-63
2023/04/22 00:09:33;;;;;;;4.97;4.30;;;11.80;80.20;;;;;;4998692;28;20117;-62
2023/04/22 00:11:58;;;;;;;5.85;3.58;;;11.80;80.30;;;;;;5001128;28;20030;-63
2023/04/22 00:14:24;;;;;;;5.25;3.65;;;11.80;80.50;;;;;;4998888;28;20060;-63
2023/04/22 00:16:49;;;;;;;4.10;3.70;;;11.70;80.50;;;;;;4997740;28;20490;-63
2023/04/22 00:19:15;;;;;;;3.80;3.47;;;11.70;80.60;;;;;;5000348;28;20520;-64
2023/04/22 00:21:41;;;;;;;2.85;2.65;;;11.70;80.70;;;;;;4999576;28;20043;-63
2023/04/22 00:24:07;;;;;;;5.55;2.45;;;11.70;80.90;;;;;;4999550;28;20080;-63
2023/04/22 00:26:32;;;;;;;2.70;2.35;;;11.70;80.90;;;;;;4999319;28;20068;-64
2023/04/22 00:28:58;;;;;;;3.83;2.30;;;11.60;80.90;;;;;;4996517;28;20180;-63
2023/04/22 00:31:23;;;;;;;2.63;2.42;;;11.60;81.10;;;;;;4997637;28;20069;-63
2023/04/22 00:33:49;;;;;;;4.97;2.83;;;11.60;81.10;;;;;;4995047;28;20044;-63
2023/04/22 00:36:14;;;;;;;2.97;2.65;;;11.50;81.10;;;;;;4995316;28;20034;-64
2023/04/22 00:38:46;;;;;;;2.50;2.30;;;11.50;81.30;;;;;;4993604;28;20053;-64
2023/04/22 00:41:12;;;;;;;2.80;2.45;;;11.50;81.50;;;;;;4997397;28;20585;-63
2023/04/22 00:43:37;;;;;;;3.22;2.92;;;11.50;81.50;;;;;;4994988;28;20042;-63
2023/04/22 00:46:03;;;;;;;3.10;2.78;;;11.50;81.60;;;;;;4996205;28;20038;-64
2023/04/22 00:48:29;;;;;;;3.17;2.42;;;11.50;81.70;;;;;;4997142;28;20041;-64
2023/04/22 00:50:55;;;;;;;4.18;2.00;;;11.40;81.70;;;;;;4998747;28;20026;-63
2023/04/22 00:53:20;;;;;;;2.60;2.10;;;11.40;81.70;;;;;;4997676;28;20510;-63
2023/04/22 00:55:46;;;;;;;2.25;1.95;;;11.40;81.70;;;;;;4999724;28;20034;-63
2023/04/22 00:58:12;;;;;;;3.17;2.10;;;11.40;81.70;;;;;;4998984;28;20288;-63
2023/04/22 01:00:38;;;;;;;2.20;2.00;;;11.40;81.90;;;;;;4995704;28;20057;-63
2023/04/22 01:03:06;;;;;;;4.20;2.00;;;11.40;81.90;;;;;;4997689;28;20571;-63
2023/04/22 01:05:32;;;;;;;3.90;2.17;;;11.30;81.90;;;;;;4995777;28;20046;-63
2023/04/22 01:07:58;;;;;;;3.17;1.92;;;11.30;81.90;;;;;;4993356;28;20049;-63
2023/04/22 01:10:23;;;;;;;2.88;1.88;;;11.30;82.00;;;;;;4993326;28;20064;-63
2023/04/22 01:12:49;;;;;;;3.38;2.30;;;11.30;82.20;;;;;;4991012;28;20061;-63
2023/04/22 01:15:15;;;;;;;2.63;2.28;;;11.30;82.30;;;;;;4993124;28;20478;-63
2023/04/22 01:17:40;;;;;;;2.50;2.30;;;11.30;82.20;;;;;;4995840;28;20489;-62
2023/04/22 01:20:09;;;;;;;3.17;2.42;;;11.30;82.20;;;;;;4994175;28;20081;-64
2023/04/22 01:22:39;;;;;;;3.80;2.80;;;11.30;82.30;;;;;;4991952;28;20774;-63
2023/04/22 01:25:05;;;;;;;3.03;2.83;;;11.40;82.50;;;;;;4996041;28;20097;-63
2023/04/22 01:27:31;;;;;;;3.13;2.70;;;11.30;82.30;;;;;;4994879;28;20045;-63
2023/04/22 01:29:57;;;;;;;2.70;2.50;;;11.30;82.40;;;;;;4996130;28;20026;-63
2023/04/22 01:32:23;;;;;;;2.67;2.47;;;11.30;82.40;;;;;;4995374;28;20030;-63
2023/04/22 01:34:49;;;;;;;2.72;2.53;;;11.30;82.30;;;;;;4994075;28;20200;-64
2023/04/22 01:37:14;;;;;;;3.70;2.42;;;11.40;82.20;;;;;;4993309;28;20183;-63
2023/04/22 01:39:40;;;;;;;4.70;2.70;;;11.40;82.20;;;;;;4994046;28;20161;-63
2023/04/22 01:42:06;;;;;;;3.60;2.50;;;11.30;82.00;;;;;;4993318;28;20030;-63
2023/04/22 01:44:32;;;;;;;4.07;2.65;;;11.40;82.00;;;;;;4995352;28;20587;-63
2023/04/22 01:46:57;;;;;;;2.50;2.30;;;11.30;82.00;;;;;;4993262;28;20113;-63
2023/04/22 01:49:23;;;;;;;3.03;2.25;;;11.30;82.00;;;;;;4993834;28;20409;-63
2023/04/22 01:51:49;;;;;;;2.30;2.03;;;11.30;82.00;;;;;;4991601;28;20241;-63
2023/04/22 01:54:15;;;;;;;2.33;2.13;;;11.30;82.00;;;;;;4994512;28;20513;-63
2023/04/22 01:56:42;;;;;;;4.22;2.17;;;11.30;82.20;;;;;;4993673;28;20381;-63
2023/04/22 01:59:08;;;;;;;3.15;2.20;;;11.30;82.20;;;;;;4994153;28;20037;-64
2023/04/22 02:01:33;;;;;;;2.15;1.95;;;11.20;82.20;;;;;;4994344;28;20042;-63
2023/04/22 02:03:59;;;;;;;2.22;2.03;;;11.20;82.30;;;;;;4998429;28;20116;-63
2023/04/22 02:06:26;;;;;;;2.30;2.10;;;11.10;82.40;;;;;;4997248;28;20047;-63
2023/04/22 02:08:51;;;;;;;2.20;2.00;;;11.10;82.40;;;;;;4992881;28;20573;-64
2023/04/22 02:11:17;;;;;;;1.73;1.58;;;11.10;82.40;;;;;;4996894;28;20042;-63
2023/04/22 02:13:42;;;;;;;2.25;1.92;;;11.10;82.40;;;;;;4992004;28;20424;-63
2023/04/22 02:16:08;;;;;;;2.88;2.00;;;11.10;82.30;;;;;;4996297;28;20081;-63
2023/04/22 02:18:34;;;;;;;1.70;1.60;;;11.10;82.40;;;;;;4993792;28;20065;-64
2023/04/22 02:20:59;;;;;;;2.15;1.85;;;11.00;82.40;;;;;;4995570;28;20033;-63
2023/04/22 02:23:26;;;;;;;1.70;1.60;;;11.00;82.60;;;;;;4995944;28;20517;-63
2023/04/22 02:25:54;;;;;;;1.50;1.40;;;11.00;82.60;;;;;;4993970;28;20044;-63
2023/04/22 02:28:21;;;;;;;2.92;1.42;;;11.00;82.60;;;;;;4996543;28;20035;-63
2023/04/22 02:30:46;;;;;;;1.60;1.50;;;11.00;82.70;;;;;;4996217;28;20084;-63
2023/04/22 02:33:12;;;;;;;1.42;1.33;;;10.90;82.60;;;;;;4993752;28;20046;-64
2023/04/22 02:35:38;;;;;;;2.50;1.20;;;11.00;82.60;;;;;;4991875;28;20034;-63
2023/04/22 02:38:04;;;;;;;1.98;1.50;;;10.90;82.60;;;;;;5007287;28;20030;-63
2023/04/22 02:40:29;;;;;;;1.42;1.33;;;10.90;82.70;;;;;;4991744;28;20101;-63
2023/04/22 02:42:55;;;;;;;1.27;1.17;;;10.90;82.80;;;;;;4993401;28;20432;-63
2023/04/22 02:45:21;;;;;;;1.30;1.20;;;10.90;82.80;;;;;;4993931;28;20275;-63
2023/04/22 02:47:46;;;;;;;1.40;1.10;;;10.90;82.80;;;;;;4994289;28;20505;-63
2023/04/22 02:50:12;;;;;;;1.13;1.02;;;10.90;82.80;;;;;;4993942;28;20106;-64
2023/04/22 02:52:38;;;;;;;4.55;1.13;;;10.90;82.80;;;;;;4992383;28;20026;-63
2023/04/22 02:55:04;;;;;;;1.48;1.13;;;10.90;82.80;;;;;;4993917;28;20398;-63
2023/04/22 02:57:30;;;;;;;1.23;1.13;;;10.80;82.70;;;;;;4992190;28;20037;-63
2023/04/22 02:59:56;;;;;;;3.20;1.17;;;10.80;82.70;;;;;;4990896;28;20034;-64
2023/04/22 03:02:22;;;;;;;2.38;1.10;;;10.80;82.70;;;;;;4997167;28;20121;-62
2023/04/22 03:04:47;;;;;;;1.00;1.00;;;10.80;82.70;;;;;;4994687;28;20037;-63
2023/04/22 03:07:13;;;;;;;2.25;1.00;;;10.80;82.70;;;;;;4991704;28;20057;-63
2023/04/22 03:09:39;;;;;;;1.20;1.00;;;10.70;82.70;;;;;;4995979;28;20034;-63
2023/04/22 03:12:05;;;;;;;1.08;0.98;;;10.70;83.00;;;;;;4990310;28;20045;-63
2023/04/22 03:14:30;;;;;;;1.95;1.20;;;10.70;82.90;;;;;;4991468;28;20037;-63
2023/04/22 03:16:56;;;;;;;1.75;1.10;;;10.60;82.80;;;;;;4993720;28;20029;-63
2023/04/22 03:19:21;;;;;;;1.52;1.38;;;10.60;82.70;;;;;;4994492;28;20042;-63
2023/04/22 03:21:47;;;;;;;1.50;1.40;;;10.60;82.90;;;;;;4992408;28;20049;-63
2023/04/22 03:24:12;;;;;;;2.85;1.65;;;10.50;82.80;;;;;;4992061;28;20096;-63
2023/04/22 03:26:38;;;;;;;1.88;1.67;;;10.50;82.90;;;;;;4992142;28;20045;-63
2023/04/22 03:29:04;;;;;;;4.15;1.70;;;10.50;82.90;;;;;;4994806;28;20523;-63
2023/04/22 03:31:30;;;;;;;1.95;1.75;;;10.50;82.80;;;;;;4994075;28;20087;-63
2023/04/22 03:33:55;;;;;;;2.50;2.30;;;10.50;83.60;;;;;;4993290;28;20062;-66
2023/04/22 03:36:21;;;;;;;3.05;2.75;;;10.40;82.80;;;;;;4994308;28;20049;-63
2023/04/22 03:38:47;;;;;;;2.30;2.10;;;10.40;82.70;;;;;;4993254;28;20053;-64
2023/04/22 03:41:12;;;;;;;2.38;2.17;;;10.40;82.70;;;;;;4988253;28;20425;-63
2023/04/22 03:43:38;;;;;;;2.60;2.40;;;10.40;82.90;;;;;;4990420;28;20313;-62
2023/04/22 03:46:03;;;;;;;2.60;2.40;;;10.30;82.90;;;;;;4990097;28;20474;-63
2023/04/22 03:48:33;;;;;;;3.05;2.50;;;10.30;83.00;;;;;;4990627;28;20095;-63
2023/04/22 03:51:01;;;;;;;3.47;3.17;;;10.20;83.10;;;;;;4992750;28;20046;-63
2023/04/22 03:53:27;;;;;;;4.38;3.50;;;10.10;82.80;;;;;;4991100;28;20044;-63
2023/04/22 03:55:53;;;;;;;3.72;3.40;;;10.10;82.80;;;;;;4992367;28;20441;-63
2023/04/22 03:58:18;;;;;;;5.03;3.72;;;10.00;83.10;;;;;;4990317;28;20040;-63
2023/04/22 04:00:44;;;;;;;6.40;3.63;;;10.00;83.30;;;;;;4989883;28;20045;-63
2023/04/22 04:03:10;;;;;;;4.38;3.95;;;9.90;83.60;;;;;;4992848;28;20175;-63
2023/04/22 04:05:36;;;;;;;4.68;4.10;;;9.90;84.00;;;;;;4994055;28;20053;-63
2023/04/22 04:08:02;;;;;;;4.57;4.18;;;9.90;84.30;;;;;;4991929;28;20070;-63
2023/04/22 04:10:27;;;;;;;4.20;3.80;;;9.90;84.40;;;;;;4991862;28;20076;-62
2023/04/22 04:12:53;;;;;;;5.22;4.70;;;9.90;84.50;;;;;;4991152;28;20433;-63
2023/04/22 04:15:20;;;;;;;5.15;4.38;;;9.80;84.60;;;;;;4988554;28;20037;-63
2023/04/22 04:17:46;;;;;;;5.18;4.38;;;9.80;84.70;;;;;;4991476;28;20027;-63
2023/04/22 04:20:13;;;;;;;6.22;4.65;;;9.80;84.70;;;;;;4993786;28;20329;-63
2023/04/22 04:22:38;;;;;;;5.07;4.57;;;9.80;84.60;;;;;;4993240;28;20031;-63
2023/04/22 04:25:05;;;;;;;6.10;4.88;;;9.80;84.60;;;;;;4994602;28;20571;-63
2023/04/22 04:27:31;;;;;;;4.93;4.43;;;9.80;84.60;;;;;;4994435;28;20033;-63
2023/04/22 04:29:57;;;;;;;5.28;4.55;;;9.90;84.50;;;;;;4991614;28;20125;-63
2023/04/22 04:32:23;;;;;;;8.05;4.75;;;9.70;84.30;;;;;;4991872;28;21564;-63
2023/04/22 04:34:49;;;;;;;5.85;4.43;;;9.70;84.20;;;;;;4990557;28;20054;-63
2023/04/22 04:37:15;;;;;;;6.07;4.35;;;9.70;84.10;;;;;;4994168;28;20465;-63
2023/04/22 04:39:42;;;;;;;5.75;4.50;;;9.70;84.10;;;;;;4991869;28;20038;-63
2023/04/22 04:42:08;;;;;;;6.57;4.13;;;9.70;84.90;;;;;;4991080;28;20038;-63
2023/04/22 04:44:34;;;;;;;4.40;3.45;;;9.70;84.10;;;;;;4990706;28;20061;-63
2023/04/22 04:47:00;;;;;;;4.90;3.53;;;9.70;84.10;;;;;;4989198;28;20379;-63
2023/04/22 04:49:26;;;;;;;5.70;3.33;;;9.70;84.10;;;;;;4992835;28;20285;-63
2023/04/22 04:51:51;;;;;;;5.75;3.30;;;9.60;84.00;;;;;;4993817;28;20046;-63
2023/04/22 04:54:17;;;;;;;3.50;3.20;;;9.60;84.10;;;;;;4994086;28;20498;-63
2023/04/22 04:56:42;;;;;;;6.15;3.17;;;9.60;84.30;;;;;;4996065;28;20030;-63
2023/04/22 04:59:08;;;;;;;3.03;2.72;;;9.50;84.40;;;;;;4995340;28;20052;-63
2023/04/22 05:01:34;;;;;;;3.35;3.05;;;9.60;84.60;;;;;;4994932;28;20033;-63
2023/04/22 05:04:00;;;;;;;4.35;3.95;;;9.60;84.70;;;;;;4994512;28;20040;-63
2023/04/22 05:06:25;;;;;;;4.63;3.42;;;9.60;84.70;;;;;;4998635;28;20520;-63
2023/04/22 05:08:51;;;;;;;4.32;3.50;;;9.60;84.70;;;;;;4996763;28;20120;-63
2023/04/22 05:11:17;;;;;;;4.10;3.15;;;9.60;84.80;;;;;;4994123;28;20050;-63
2023/04/22 05:13:43;;;;;;;4.63;3.20;;;9.60;85.00;;;;;;4993057;28;20476;-63
2023/04/22 05:16:08;;;;;;;3.40;3.08;;;9.60;85.20;;;;;;4994676;28;21263;-63
2023/04/22 05:18:34;;;;;;;3.53;3.22;;;9.60;85.40;;;;;;4992818;28;20585;-63
2023/04/22 05:21:02;;;;;;;3.78;3.17;;;9.60;85.60;;;;;;4996686;28;20037;-63
2023/04/22 05:23:29;;;;;;;4.18;3.25;;;9.60;85.90;;;;;;4994779;28;20058;-63
2023/04/22 05:25:55;;;;;;;5.78;3.58;;;9.60;86.00;;;;;;4994914;28;20030;-63
2023/04/22 05:28:21;;;;;;;4.50;3.25;;;9.70;86.20;;;;;;4993327;28;20478;-63
2023/04/22 05:30:46;;;;;;;4.13;3.72;;;9.80;86.10;;;;;;4992533;28;20207;-63
2023/04/22 05:33:12;;;;;;;6.55;4.22;;;9.80;86.20;;;;;;4996132;28;20069;-63
2023/04/22 05:35:38;;;;;;;5.47;3.90;;;9.90;86.40;;;;;;4995504;28;20041;-63
2023/04/22 05:38:03;;;;;;;5.15;3.67;;;9.90;86.40;;;;;;4996598;28;20037;-62
2023/04/22 05:40:29;;;;;;;4.82;3.50;;;9.90;86.60;;;;;;4991497;28;20038;-63
2023/04/22 05:42:56;;;;;;;4.05;3.22;;;10.00;86.60;;;;;;4991892;28;20045;-63
2023/04/22 05:45:21;;;;;;;5.78;3.80;;;10.10;86.60;;;;;;4993176;28;20065;-63
2023/04/22 05:47:47;;;;;;;8.35;3.80;;;10.10;86.60;;;;;;4993657;28;20593;-63
2023/04/22 05:50:13;;;;;;;4.15;3.75;;;10.20;86.60;;;;;;4993685;28;20056;-63
2023/04/22 05:52:39;;;;;;;5.90;4.68;;;10.30;86.60;;;;;;4994071;28;20030;-63
2023/04/22 05:55:05;;;;;;;5.63;3.85;;;10.30;86.50;;;;;;4993156;28;20037;-63
2023/04/22 05:57:31;;;;;;;9.68;4.10;;;10.30;86.50;;;;;;4991736;28;20104;-63
2023/04/22 05:59:58;;;;;;;5.15;4.40;;;10.40;86.50;;;;;;4991933;28;20030;-63
2023/04/22 06:02:24;;;;;;;8.40;6.22;;;10.50;86.40;;;;;;4993379;28;20080;-63
2023/04/22 06:04:50;;;;;;;5.00;4.50;;;10.50;86.30;;;;;;4988656;28;20046;-63
2023/04/22 06:07:15;;;;;;;5.75;4.35;;;10.60;86.20;;;;;;4995061;28;20066;-63
2023/04/22 06:09:41;;;;;;;5.25;4.75;;;10.60;86.00;;;;;;4993811;28;21541;-63
2023/04/22 06:12:06;;;;;;;6.03;4.20;;;10.70;86.00;;;;;;4994239;28;20057;-63
2023/04/22 06:14:32;;;;;;;4.90;4.00;;;10.80;86.00;;;;;;4994567;28;20132;-63
2023/04/22 06:16:58;;;;;;;5.35;3.70;;;10.80;86.00;;;;;;4994539;28;20128;-63
2023/04/22 06:19:23;;;;;;;4.35;3.63;;;10.90;86.00;;;;;;4994186;28;20044;-63
2023/04/22 06:21:49;;;;;;;4.38;3.20;;;10.90;85.70;;;;;;4993629;28;20135;-63
2023/04/22 06:24:15;;;;;;;3.45;3.15;;;11.00;85.70;;;;;;4995277;28;20042;-63
2023/04/22 06:26:40;;;;;;;3.35;3.05;;;11.00;85.70;;;;;;4993848;28;20050;-63
2023/04/22 06:29:06;;;;;;;4.65;3.25;;;11.10;85.70;;;;;;4993826;28;20042;-63
2023/04/22 06:31:32;;;;;;;4.18;3.80;;;11.10;85.60;;;;;;4990734;28;20116;-63
2023/04/22 06:33:58;;;;;;;4.93;3.65;;;11.20;85.70;;;;;;4992790;28;20120;-63
2023/04/22 06:36:25;;;;;;;4.20;3.60;;;11.20;85.50;;;;;;4993845;28;20137;-63
2023/04/22 06:38:50;;;;;;;4.05;3.65;;;11.30;85.70;;;;;;4994283;28;20038;-63
2023/04/22 06:41:16;;;;;;;3.78;3.38;;;11.40;85.80;;;;;;4989652;28;20045;-63
2023/04/22 06:43:42;;;;;;;4.13;3.63;;;11.30;85.80;;;;;;4990328;28;20633;-63
2023/04/22 06:46:08;;;;;;;5.93;3.83;;;11.40;85.80;;;;;;4992163;28;20042;-63
2023/04/22 06:48:34;;;;;;;4.18;3.50;;;11.40;85.80;;;;;;4992876;28;20144;-64
2023/04/22 06:51:00;;;;;;;4.60;3.80;;;11.50;85.90;;;;;;4991268;28;20038;-63
2023/04/22 06:53:26;;;;;;;4.20;3.67;;;11.50;85.90;;;;;;4995851;28;20168;-64
2023/04/22 06:55:53;;;;;;;4.00;3.53;;;11.60;86.00;;;;;;4992051;28;20521;-63
2023/04/22 06:58:19;;;;;;;3.80;3.50;;;11.60;86.00;;;;;;4991653;28;20088;-63
2023/04/22 07:00:45;;;;;;;3.58;3.22;;;11.70;85.90;;;;;;4993557;28;20037;-64
2023/04/22 07:03:10;;;;;;;4.00;3.60;;;11.80;85.90;;;;;;4989939;28;20034;-63
2023/04/22 07:05:36;;;;;;;4.68;3.60;;;11.80;86.00;;;;;;4995942;28;20034;-63
2023/04/22 07:08:02;;;;;;;4.18;3.78;;;12.00;86.00;;;;;;4993380;28;20566;-63
2023/04/22 07:10:27;;;;;;;4.53;3.67;;;12.10;85.90;;;;;;4994283;28;20133;-62
2023/04/22 07:12:53;;;;;;;3.88;3.42;;;12.10;85.90;;;;;;4989886;28;20057;-64
2023/04/22 07:15:18;;;;;;;4.95;4.10;;;12.20;85.90;;;;;;4991272;28;20030;-63
2023/04/22 07:17:44;;;;;;;4.45;3.80;;;12.30;86.00;;;;;;4995644;28;20042;-63
2023/04/22 07:20:10;;;;;;;5.07;3.28;;;12.40;85.90;;;;;;4995130;28;20026;-63
2023/04/22 07:22:36;;;;;;;3.40;3.10;;;12.50;86.20;;;;;;4993733;28;20109;-63
2023/04/22 07:25:02;;;;;;;3.63;2.90;;;12.60;86.20;;;;;;4992778;28;20129;-63
2023/04/22 07:27:27;;;;;;;3.10;2.70;;;12.70;86.30;;;;;;4995667;28;20041;-63
2023/04/22 07:29:53;;;;;;;3.17;2.88;;;12.80;86.20;;;;;;4992468;28;20041;-63
2023/04/22 07:32:18;;;;;;;3.40;2.55;;;12.90;86.00;;;;;;4991683;28;20042;-64
2023/04/22 07:34:44;;;;;;;3.13;2.63;;;13.00;85.90;;;;;;4994066;28;20038;-63
2023/04/22 07:37:09;;;;;;;2.97;2.40;;;13.10;85.50;;;;;;4978151;28;20049;-64
2023/04/22 07:39:35;;;;;;;2.72;2.40;;;13.20;85.10;;;;;;4983026;28;20046;-64
2023/04/22 07:42:02;;;;;;;2.47;2.20;;;13.30;84.60;;;;;;4985736;28;20152;-64
2023/04/22 07:44:27;;;;;;;3.50;2.10;;;13.40;84.10;;;;;;4987718;28;20041;-64
2023/04/22 07:46:54;;;;;;;2.20;2.00;;;13.50;83.50;;;;;;4983268;28;20100;-64
2023/04/22 07:49:19;;;;;;;3.05;2.03;;;13.50;82.80;;;;;;4984014;28;20421;-64
2023/04/22 07:51:45;;;;;;;2.15;2.00;;;13.60;82.60;;;;;;4983412;28;20034;-64
2023/04/22 07:54:11;;;;;;;1.90;1.80;;;13.70;82.60;;;;;;4990861;28;20042;-64
2023/04/22 07:56:36;;;;;;;2.15;1.95;;;13.80;82.60;;;;;;4980632;28;20533;-64
2023/04/22 07:59:03;;;;;;;2.00;1.80;;;13.90;82.20;;;;;;4988669;28;20061;-64
2023/04/22 08:01:28;;;;;;;3.25;2.00;;;14.00;82.10;;;;;;4983500;28;20049;-64
2023/04/22 08:03:55;;;;;;;2.72;2.08;;;14.10;81.30;;;;;;4989029;28;20041;-64
2023/04/22 08:06:21;;;;;;;3.03;1.90;;;14.20;81.30;;;;;;4986445;28;20136;-64
2023/04/22 08:08:47;;;;;;;2.65;2.08;;;14.30;80.60;;;;;;4979968;28;20588;-64
2023/04/22 08:11:12;;;;;;;5.07;1.92;;;14.40;80.30;;;;;;4985863;28;20042;-64
2023/04/22 08:13:38;;;;;;;1.83;1.73;;;14.50;80.00;;;;;;4991894;28;20042;-64
2023/04/22 08:16:05;;;;;;;2.00;1.63;;;14.60;79.20;;;;;;4984562;28;20719;-64
2023/04/22 08:18:31;;;;;;;1.70;1.60;;;14.70;78.20;;;;;;4987562;28;20057;-64
2023/04/22 08:20:56;;;;;;;2.30;2.10;;;14.90;77.80;;;;;;4991132;28;20042;-64
2023/04/22 08:23:22;;;;;;;1.67;1.58;;;14.90;77.50;;;;;;4992055;28;20464;-64
2023/04/22 08:25:48;;;;;;;1.70;1.60;;;15.00;77.20;;;;;;4989352;28;20092;-65
2023/04/22 08:28:14;;;;;;;2.00;1.80;;;15.10;77.10;;;;;;4991673;28;20080;-64
2023/04/22 08:30:40;;;;;;;2.15;1.95;;;15.20;76.80;;;;;;4996469;28;20031;-64
2023/04/22 08:33:05;;;;;;;2.63;1.77;;;15.30;76.50;;;;;;4994371;28;20038;-64
2023/04/22 08:35:34;;;;;;;2.47;1.85;;;15.30;76.30;;;;;;4993071;28;20057;-64
2023/04/22 08:37:59;;;;;;;2.15;1.95;;;15.40;75.80;;;;;;4994220;28;21012;-64
2023/04/22 08:40:26;;;;;;;2.20;1.92;;;15.50;75.80;;;;;;4995535;28;20039;-63
2023/04/22 08:42:52;;;;;;;2.25;2.05;;;15.60;75.60;;;;;;4973681;28;20097;-65
2023/04/22 08:45:20;;;;;;;2.50;2.30;;;15.70;75.60;;;;;;4977236;28;20046;-65
2023/04/22 08:47:47;;;;;;;2.47;2.20;;;15.80;75.30;;;;;;4980637;28;20044;-65
2023/04/22 08:50:13;;;;;;;2.58;2.38;;;15.80;74.60;;;;;;4980444;28;20068;-64
2023/04/22 08:52:40;;;;;;;2.65;2.45;;;16.00;74.30;;;;;;4987150;28;20170;-64
2023/04/22 08:55:06;;;;;;;3.35;2.20;;;16.00;74.40;;;;;;4994339;28;20577;-64
2023/04/22 08:57:34;;;;;;;2.05;1.80;;;16.10;74.70;;;;;;4998163;28;20117;-64
2023/04/22 09:00:00;;;;;;;1.95;1.83;;;16.20;73.50;;;;;;4995705;28;20066;-64
2023/04/22 09:02:30;;;;;;;3.10;1.88;;;16.30;72.80;;;;;;4977872;28;20286;-64
2023/04/22 09:04:57;;;;;;;3.50;1.83;;;16.30;72.60;;;;;;4995824;28;20042;-64
2023/04/22 09:07:26;;;;;;;3.28;1.88;;;16.40;72.80;;;;;;4987205;28;20046;-64
2023/04/22 09:09:53;;;;;;;3.05;2.00;;;16.50;73.00;;;;;;4983247;28;20100;-64
2023/04/22 09:12:19;;;;;;;2.45;1.60;;;16.60;73.10;;;;;;4990044;28;20038;-64
2023/04/22 09:14:45;;;;;;;3.33;1.55;;;16.70;73.00;;;;;;4985581;28;20068;-64
2023/04/22 09:17:13;;;;;;;1.50;1.40;;;16.80;72.30;;;;;;4989855;28;20045;-64
2023/04/22 09:19:39;;;;;;;2.10;1.48;;;16.90;71.20;;;;;;4987256;28;20089;-64
2023/04/22 09:22:08;;;;;;;2.30;1.85;;;16.90;71.00;;;;;;4995925;28;20042;-64
2023/04/22 09:24:34;;;;;;;2.88;1.38;;;17.10;70.90;;;;;;4997265;28;20403;-65
2023/04/22 09:27:02;;;;;;;1.88;1.20;;;17.20;70.20;;;;;;4995829;28;20065;-64
2023/04/22 09:29:30;;;;;;;1.48;1.38;;;17.40;69.50;;;;;;4996021;28;20533;-64
2023/04/22 09:31:56;;;;;;;2.58;1.30;;;17.40;69.00;;;;;;4997034;28;20572;-64
2023/04/22 09:34:22;;;;;;;1.08;1.00;;;17.60;69.20;;;;;;4992916;28;20040;-64
2023/04/22 09:36:50;;;;;;;2.22;1.40;;;17.70;68.80;;;;;;4995352;28;20042;-64
2023/04/22 09:39:16;;;;;;;1.30;1.20;;;17.90;68.20;;;;;;4996777;28;20120;-64
2023/04/22 09:41:42;;;;;;;1.13;0.95;;;18.00;68.00;;;;;;4988144;28;20543;-64
2023/04/22 09:44:12;;;;;;;1.30;1.20;;;18.10;67.30;;;;;;4983259;28;20053;-64
2023/04/22 09:46:41;;;;;;;3.03;1.20;;;18.20;66.70;;;;;;4994842;28;20367;-64
2023/04/22 09:49:07;;;;;;;1.42;1.23;;;18.30;66.20;;;;;;4997259;28;20050;-63
2023/04/22 09:51:33;;;;;;;1.13;1.02;;;18.40;66.10;;;;;;4991935;28;20458;-64
2023/04/22 09:54:02;;;;;;;2.15;1.48;;;18.50;65.80;;;;;;4993868;28;20044;-64
2023/04/22 09:56:48;;;;;;;1.75;1.20;;;18.60;65.90;;;;;;4992490;28;20039;-64
2023/04/22 09:59:21;;;;;;;1.55;1.20;;;18.70;65.00;;;;;;4986315;28;20068;-64
2023/04/22 10:01:47;;;;;;;1.30;1.20;;;18.80;65.60;;;;;;4992253;28;20084;-63
2023/04/22 10:04:14;;;;;;;2.08;1.30;;;18.90;66.00;;;;;;4995733;28;20061;-64
2023/04/22 10:06:40;;;;;;;2.92;1.00;;;19.00;65.50;;;;;;4990178;28;20034;-64
2023/04/22 10:09:06;;;;;;;1.85;1.10;;;19.10;64.60;;;;;;4993597;28;20533;-64
2023/04/22 10:11:33;;;;;;;2.88;1.30;;;19.20;64.50;;;;;;4996746;28;20041;-64
2023/04/22 10:14:01;;;;;;;1.27;1.17;;;19.30;64.50;;;;;;4995313;28;20034;-63
2023/04/22 10:16:31;;;;;;;2.00;1.00;;;19.40;64.10;;;;;;4995971;28;20034;-64
2023/04/22 10:18:59;;;;;;;1.25;1.10;;;19.60;63.50;;;;;;5013676;28;20037;-64
2023/04/22 10:21:27;;;;;;;1.33;0.95;;;19.70;63.80;;;;;;5013251;28;20111;-64
2023/04/22 10:23:53;;;;;;;0.70;0.68;;;19.80;63.00;;;;;;5013674;28;20042;-64
2023/04/22 10:26:37;;;;;;;2.25;1.00;;;19.90;62.70;;;;;;5011457;28;20431;-64
2023/04/22 10:29:06;;;;;;;1.53;0.90;;;20.00;60.00;;;;;;5013682;28;20045;-64
2023/04/22 10:31:32;;;;;;;1.15;0.90;;;20.10;61.40;;;;;;5011885;28;20526;-64
2023/04/22 10:34:18;;;;;;;1.05;0.70;;;20.20;60.80;;;;;;5016422;28;20071;-64
2023/04/22 10:36:59;;;;;;;5.07;0.95;;;20.30;58.90;;;;;;5009942;28;20103;-64
2023/04/22 10:39:25;;;;;;;3.05;0.90;;;20.40;59.00;;;;;;5017610;28;20057;-64
2023/04/22 10:41:56;;;;;;;1.20;0.85;;;20.40;59.10;;;;;;5016296;28;20038;-64
2023/04/22 10:44:26;;;;;;;1.20;0.80;;;20.50;58.80;;;;;;5017821;28;20265;-64
2023/04/22 10:46:51;;;;;;;1.58;0.90;;;20.60;59.00;;;;;;5012889;28;20597;-65
2023/04/22 10:49:20;;;;;;;0.90;0.90;;;20.70;58.60;;;;;;5015088;28;20041;-64
2023/04/22 10:51:45;;;;;;;0.70;0.70;;;20.70;58.00;;;;;;5013167;28;20041;-64
2023/04/22 10:54:26;;;;;;;1.60;0.85;;;20.80;58.20;;;;;;5016132;28;20084;-64
2023/04/22 10:57:13;;;;;;;1.15;0.73;;;20.90;56.80;;;;;;5015260;28;20044;-64
2023/04/22 10:59:48;;;;;;;1.35;0.70;;;20.90;55.40;;;;;;5015945;28;20034;-63
2023/04/22 11:02:15;;;;;;;0.68;0.60;;;21.00;56.00;;;;;;5016618;28;20034;-63
2023/04/22 11:04:41;;;;;;;2.55;0.90;;;21.10;56.80;;;;;;5012395;28;20042;-64
2023/04/22 11:07:14;;;;;;;0.88;0.80;;;21.10;56.60;;;;;;5004693;28;20524;-64
2023/04/22 11:09:43;;;;;;;1.48;0.70;;;21.20;55.30;;;;;;5016241;28;20041;-64
2023/04/22 11:12:40;;;;;;;2.28;0.90;;;21.20;56.40;;;;;;5014684;28;20034;-64
2023/04/22 11:15:11;;;;;;;1.55;0.73;;;21.30;54.60;;;;;;5014725;28;20057;-64
2023/04/22 11:17:38;;;;;;;2.00;0.70;;;21.40;54.90;;;;;;5017107;28;20029;-64
2023/04/22 11:20:05;;;;;;;1.80;0.70;;;21.40;55.30;;;;;;5016282;28;20515;-63
2023/04/22 11:22:40;;;;;;;3.10;0.70;;;21.50;55.00;;;;;;5015517;28;20034;-64
2023/04/22 11:25:08;;;;;;;1.40;0.75;;;21.50;54.00;;;;;;5014673;28;20045;-64
2023/04/22 11:27:33;;;;;;;1.95;0.70;;;21.60;54.50;;;;;;5015858;28;20099;-64
2023/04/22 11:30:08;;;;;;;0.90;0.90;;;21.70;54.40;;;;;;5015868;28;20041;-64
2023/04/22 11:32:42;;;;;;;1.10;0.80;;;21.80;53.10;;;;;;5015051;28;20141;-63
2023/04/22 11:35:10;;;;;;;1.42;0.80;;;21.90;52.80;;;;;;5015645;28;20493;-64
2023/04/22 11:37:43;;;;;;;1.63;0.80;;;22.00;53.20;;;;;;5014817;28;20509;-64
2023/04/22 11:40:11;;;;;;;1.20;0.70;;;22.00;52.20;;;;;;5016388;28;20038;-64
2023/04/22 11:42:37;;;;;;;0.98;0.60;;;22.10;52.20;;;;;;5014821;28;20037;-64
2023/04/22 11:45:05;;;;;;;1.00;0.80;;;22.20;52.00;;;;;;5014217;28;20401;-63
2023/04/22 11:47:31;;;;;;;1.08;0.70;;;22.20;51.10;;;;;;5011776;28;20057;-64
2023/04/22 11:49:58;;;;;;;1.35;0.70;;;22.30;50.40;;;;;;5012207;28;20116;-64
2023/04/22 11:52:44;;;;;;;1.23;1.10;;;22.20;50.80;;;;;;5014134;28;20029;-64
2023/04/22 11:55:11;;;;;;;0.70;0.70;;;22.40;50.10;;;;;;5014180;28;20057;-63
2023/04/22 11:57:37;;;;;;;1.30;0.68;;;22.40;51.00;;;;;;5015328;28;20629;-64
2023/04/22 12:00:03;;;;;;;1.15;0.88;;;22.50;51.10;;;;;;5009558;28;20511;-64
2023/04/22 12:02:29;;;;;;;1.33;0.68;;;22.50;51.00;;;;;;5011317;28;20386;-64
2023/04/22 12:04:57;;;;;;;0.98;0.88;;;22.60;50.70;;;;;;5006352;28;20049;-64
2023/04/22 12:07:26;;;;;;;1.20;0.75;;;22.60;49.60;;;;;;5012377;28;20570;-64
2023/04/22 12:09:55;;;;;;;1.00;0.60;;;22.60;49.90;;;;;;5014390;28;20044;-63
2023/04/22 12:12:27;;;;;;;0.93;0.68;;;22.70;49.00;;;;;;5013396;28;20029;-64
2023/04/22 12:14:53;;;;;;;1.13;0.73;;;22.70;48.70;;;;;;5013144;28;20052;-64
2023/04/22 12:17:23;;;;;;;2.67;0.70;;;22.80;49.30;;;;;;5015223;28;20038;-64
2023/04/22 12:19:53;;;;;;;1.00;0.90;;;22.80;48.30;;;;;;5012907;28;20397;-63
2023/04/22 12:22:24;;;;;;;1.23;0.80;;;22.80;48.40;;;;;;5012512;28;20072;-63
2023/04/22 12:24:49;;;;;;;1.42;0.80;;;22.90;48.60;;;;;;5013720;28;20049;-64
2023/04/22 12:27:15;;;;;;;1.65;0.80;;;22.90;48.70;;;;;;5014183;28;20034;-64
2023/04/22 12:29:53;;;;;;;1.35;0.90;;;22.90;48.90;;;;;;5014451;28;20037;-64
2023/04/22 12:32:20;;;;;;;1.77;0.80;;;22.90;46.70;;;;;;5013584;28;20080;-64
2023/04/22 12:34:46;;;;;;;0.93;0.70;;;23.00;47.00;;;;;;5010741;28;20045;-64
2023/04/22 12:37:12;;;;;;;1.55;0.95;;;23.00;47.70;;;;;;5011516;28;20336;-64
2023/04/22 12:39:38;;;;;;;0.98;0.88;;;23.00;47.60;;;;;;5011303;28;20599;-64
2023/04/22 12:42:05;;;;;;;2.55;0.70;;;23.00;46.90;;;;;;5012393;28;20134;-63
2023/04/22 12:44:31;;;;;;;1.65;0.95;;;23.10;47.00;;;;;;5012374;28;20095;-64
2023/04/22 12:46:57;;;;;;;1.77;0.75;;;23.10;46.80;;;;;;5012980;28;20045;-64